6  °C
Temperature
1  °C
  Dewpoint
71  %
   Humidity
Temp | Dewpoint | Humidity
21  km/h
Wind Speed
13  mph
Wind Speed
11  kts
Wind Speed
50°
North East

Wind Speed
Mostly Cloudy
Conditions
Pressure 1025.92 (hPa) - 30.3 (in)
Visibility 6.2 (mi) - 10.0 (km)

Current Conditions
LTBA
Location Atatürk International 6km (3.2mi)
Metar :LTBA 152350Z 05011KT 9999 BKN028 06/01 Q1026 NOSIG RMK RWY17L 05008KT 020V100 RWY05 02014KT 350V050 RWY23 05010KT 010V090
Sat 16th February 02:50 am

Airport
  Metar Aviation API Data Provided by https://www.checkwx.com/ CSS/SVG/PHP scripts by weather34.com © 2015-2019